sensor_id;sensor_type;location;lat;lon;timestamp;P1;durP1;ratioP1;P2;durP2;ratioP2
21999;SDS011;11164;48.818;2.322;2023-04-28T00:00:16;6.57;;;3.60;;
21999;SDS011;11164;48.818;2.322;2023-04-28T00:02:42;6.53;;;4.00;;
21999;SDS011;11164;48.818;2.322;2023-04-28T00:05:07;6.15;;;3.85;;
21999;SDS011;11164;48.818;2.322;2023-04-28T00:07:33;5.55;;;4.00;;
21999;SDS011;11164;48.818;2.322;2023-04-28T00:09:58;6.00;;;3.90;;
21999;SDS011;11164;48.818;2.322;2023-04-28T00:12:24;5.20;;;3.95;;
21999;SDS011;11164;48.818;2.322;2023-04-28T00:14:49;5.28;;;3.58;;
21999;SDS011;11164;48.818;2.322;2023-04-28T00:17:15;5.00;;;3.90;;
21999;SDS011;11164;48.818;2.322;2023-04-28T00:19:41;5.25;;;3.53;;
21999;SDS011;11164;48.818;2.322;2023-04-28T00:22:06;6.07;;;4.00;;
21999;SDS011;11164;48.818;2.322;2023-04-28T00:24:31;6.85;;;4.10;;
21999;SDS011;11164;48.818;2.322;2023-04-28T00:26:57;8.38;;;3.95;;
21999;SDS011;11164;48.818;2.322;2023-04-28T00:29:23;6.70;;;3.75;;
21999;SDS011;11164;48.818;2.322;2023-04-28T00:31:48;7.75;;;4.40;;
21999;SDS011;11164;48.818;2.322;2023-04-28T00:34:14;8.35;;;3.88;;
21999;SDS011;11164;48.818;2.322;2023-04-28T00:36:39;6.57;;;3.75;;
21999;SDS011;11164;48.818;2.322;2023-04-28T00:39:05;5.72;;;3.88;;
21999;SDS011;11164;48.818;2.322;2023-04-28T00:41:30;6.30;;;4.13;;
21999;SDS011;11164;48.818;2.322;2023-04-28T00:43:56;5.78;;;4.03;;
21999;SDS011;11164;48.818;2.322;2023-04-28T00:46:28;6.78;;;4.25;;
21999;SDS011;11164;48.818;2.322;2023-04-28T00:48:55;6.60;;;3.87;;
21999;SDS011;11164;48.818;2.322;2023-04-28T00:51:21;6.22;;;4.00;;
21999;SDS011;11164;48.818;2.322;2023-04-28T00:53:47;7.22;;;4.47;;
21999;SDS011;11164;48.818;2.322;2023-04-28T00:56:12;6.72;;;3.88;;
21999;SDS011;11164;48.818;2.322;2023-04-28T00:58:38;7.50;;;4.20;;
21999;SDS011;11164;48.818;2.322;2023-04-28T01:01:04;5.90;;;3.83;;
21999;SDS011;11164;48.818;2.322;2023-04-28T01:03:32;9.90;;;3.70;;
21999;SDS011;11164;48.818;2.322;2023-04-28T01:05:59;5.53;;;3.80;;
21999;SDS011;11164;48.818;2.322;2023-04-28T01:08:29;5.80;;;3.70;;
21999;SDS011;11164;48.818;2.322;2023-04-28T01:10:56;5.45;;;3.65;;
21999;SDS011;11164;48.818;2.322;2023-04-28T01:13:21;6.47;;;3.97;;
21999;SDS011;11164;48.818;2.322;2023-04-28T01:15:47;7.18;;;3.85;;
21999;SDS011;11164;48.818;2.322;2023-04-28T01:18:12;6.57;;;3.88;;
21999;SDS011;11164;48.818;2.322;2023-04-28T01:20:40;5.85;;;3.88;;
21999;SDS011;11164;48.818;2.322;2023-04-28T01:23:10;5.95;;;3.65;;
21999;SDS011;11164;48.818;2.322;2023-04-28T01:25:39;5.78;;;3.53;;
21999;SDS011;11164;48.818;2.322;2023-04-28T01:28:05;5.22;;;3.72;;
21999;SDS011;11164;48.818;2.322;2023-04-28T01:30:31;6.03;;;3.63;;
21999;SDS011;11164;48.818;2.322;2023-04-28T01:32:56;6.45;;;3.55;;
21999;SDS011;11164;48.818;2.322;2023-04-28T01:35:22;9.15;;;4.07;;
21999;SDS011;11164;48.818;2.322;2023-04-28T01:37:47;6.43;;;3.83;;
21999;SDS011;11164;48.818;2.322;2023-04-28T01:40:13;6.03;;;4.00;;
21999;SDS011;11164;48.818;2.322;2023-04-28T01:42:38;5.63;;;3.75;;
21999;SDS011;11164;48.818;2.322;2023-04-28T01:45:03;6.80;;;4.13;;
21999;SDS011;11164;48.818;2.322;2023-04-28T01:47:29;5.97;;;3.97;;
21999;SDS011;11164;48.818;2.322;2023-04-28T01:49:55;6.50;;;4.47;;
21999;SDS011;11164;48.818;2.322;2023-04-28T01:52:20;6.05;;;4.05;;
21999;SDS011;11164;48.818;2.322;2023-04-28T01:54:48;7.43;;;4.43;;
21999;SDS011;11164;48.818;2.322;2023-04-28T01:57:13;6.93;;;4.25;;
21999;SDS011;11164;48.818;2.322;2023-04-28T01:59:39;8.48;;;4.15;;
21999;SDS011;11164;48.818;2.322;2023-04-28T02:02:04;6.72;;;4.30;;
21999;SDS011;11164;48.818;2.322;2023-04-28T02:04:30;6.35;;;4.60;;
21999;SDS011;11164;48.818;2.322;2023-04-28T02:06:55;6.20;;;4.38;;
21999;SDS011;11164;48.818;2.322;2023-04-28T02:09:20;5.95;;;3.60;;
21999;SDS011;11164;48.818;2.322;2023-04-28T02:11:46;5.47;;;3.78;;
21999;SDS011;11164;48.818;2.322;2023-04-28T02:14:11;6.03;;;4.25;;
21999;SDS011;11164;48.818;2.322;2023-04-28T02:16:36;6.85;;;4.20;;
21999;SDS011;11164;48.818;2.322;2023-04-28T02:19:02;7.07;;;4.00;;
21999;SDS011;11164;48.818;2.322;2023-04-28T02:21:27;7.45;;;4.20;;
21999;SDS011;11164;48.818;2.322;2023-04-28T02:23:52;5.55;;;4.15;;
21999;SDS011;11164;48.818;2.322;2023-04-28T02:26:18;5.72;;;4.13;;
21999;SDS011;11164;48.818;2.322;2023-04-28T02:28:43;6.18;;;4.05;;
21999;SDS011;11164;48.818;2.322;2023-04-28T02:31:09;8.27;;;3.53;;
21999;SDS011;11164;48.818;2.322;2023-04-28T02:33:36;6.18;;;3.75;;
21999;SDS011;11164;48.818;2.322;2023-04-28T02:36:02;5.85;;;3.90;;
21999;SDS011;11164;48.818;2.322;2023-04-28T02:38:29;4.35;;;3.20;;
21999;SDS011;11164;48.818;2.322;2023-04-28T02:41:02;4.72;;;3.03;;
21999;SDS011;11164;48.818;2.322;2023-04-28T02:43:29;4.68;;;3.17;;
21999;SDS011;11164;48.818;2.322;2023-04-28T02:45:55;3.78;;;2.63;;
21999;SDS011;11164;48.818;2.322;2023-04-28T02:48:21;3.92;;;2.65;;
21999;SDS011;11164;48.818;2.322;2023-04-28T02:50:48;4.53;;;2.70;;
21999;SDS011;11164;48.818;2.322;2023-04-28T02:53:13;4.22;;;2.65;;
21999;SDS011;11164;48.818;2.322;2023-04-28T02:55:39;3.90;;;2.22;;
21999;SDS011;11164;48.818;2.322;2023-04-28T02:58:04;4.95;;;2.65;;
21999;SDS011;11164;48.818;2.322;2023-04-28T03:00:29;3.70;;;2.38;;
21999;SDS011;11164;48.818;2.322;2023-04-28T03:02:55;6.15;;;2.33;;
21999;SDS011;11164;48.818;2.322;2023-04-28T03:05:20;26.38;;;2.60;;
21999;SDS011;11164;48.818;2.322;2023-04-28T03:07:46;3.42;;;2.00;;
21999;SDS011;11164;48.818;2.322;2023-04-28T03:10:11;5.30;;;2.08;;
21999;SDS011;11164;48.818;2.322;2023-04-28T03:12:37;3.50;;;1.77;;
21999;SDS011;11164;48.818;2.322;2023-04-28T03:15:02;3.60;;;2.10;;
21999;SDS011;11164;48.818;2.322;2023-04-28T03:17:28;4.45;;;2.05;;
21999;SDS011;11164;48.818;2.322;2023-04-28T03:19:53;3.00;;;1.50;;
21999;SDS011;11164;48.818;2.322;2023-04-28T03:22:19;3.58;;;1.65;;
21999;SDS011;11164;48.818;2.322;2023-04-28T03:24:44;2.92;;;1.40;;
21999;SDS011;11164;48.818;2.322;2023-04-28T03:27:10;3.03;;;1.50;;
21999;SDS011;11164;48.818;2.322;2023-04-28T03:29:36;2.95;;;1.30;;
21999;SDS011;11164;48.818;2.322;2023-04-28T03:32:01;3.03;;;1.30;;
21999;SDS011;11164;48.818;2.322;2023-04-28T03:34:27;3.22;;;1.52;;
21999;SDS011;11164;48.818;2.322;2023-04-28T03:36:52;3.60;;;1.50;;
21999;SDS011;11164;48.818;2.322;2023-04-28T03:39:18;2.53;;;1.42;;
21999;SDS011;11164;48.818;2.322;2023-04-28T03:41:43;2.92;;;1.60;;
21999;SDS011;11164;48.818;2.322;2023-04-28T03:44:08;4.28;;;1.58;;
21999;SDS011;11164;48.818;2.322;2023-04-28T03:46:34;3.15;;;1.40;;
21999;SDS011;11164;48.818;2.322;2023-04-28T03:48:59;3.47;;;1.10;;
21999;SDS011;11164;48.818;2.322;2023-04-28T03:51:28;4.45;;;1.30;;
21999;SDS011;11164;48.818;2.322;2023-04-28T03:53:53;2.85;;;1.05;;
21999;SDS011;11164;48.818;2.322;2023-04-28T03:56:19;3.13;;;1.30;;
21999;SDS011;11164;48.818;2.322;2023-04-28T03:58:44;3.28;;;1.33;;
21999;SDS011;11164;48.818;2.322;2023-04-28T04:01:10;2.58;;;1.10;;
21999;SDS011;11164;48.818;2.322;2023-04-28T04:03:35;4.90;;;1.50;;
21999;SDS011;11164;48.818;2.322;2023-04-28T04:06:00;2.83;;;1.27;;
21999;SDS011;11164;48.818;2.322;2023-04-28T04:08:26;3.40;;;1.20;;
21999;SDS011;11164;48.818;2.322;2023-04-28T04:10:52;2.40;;;1.30;;
21999;SDS011;11164;48.818;2.322;2023-04-28T04:13:18;2.53;;;1.20;;
21999;SDS011;11164;48.818;2.322;2023-04-28T04:15:44;2.30;;;1.10;;
21999;SDS011;11164;48.818;2.322;2023-04-28T04:18:10;2.75;;;1.20;;
21999;SDS011;11164;48.818;2.322;2023-04-28T04:20:35;2.50;;;1.27;;
21999;SDS011;11164;48.818;2.322;2023-04-28T04:23:01;2.45;;;1.30;;
21999;SDS011;11164;48.818;2.322;2023-04-28T04:25:27;2.38;;;1.17;;
21999;SDS011;11164;48.818;2.322;2023-04-28T04:27:53;2.97;;;1.40;;
21999;SDS011;11164;48.818;2.322;2023-04-28T04:30:18;2.70;;;1.25;;
21999;SDS011;11164;48.818;2.322;2023-04-28T04:32:44;3.22;;;1.33;;
21999;SDS011;11164;48.818;2.322;2023-04-28T04:35:09;3.42;;;1.40;;
21999;SDS011;11164;48.818;2.322;2023-04-28T04:37:34;3.45;;;1.33;;
21999;SDS011;11164;48.818;2.322;2023-04-28T04:40:00;3.25;;;1.60;;
21999;SDS011;11164;48.818;2.322;2023-04-28T04:42:26;2.22;;;1.30;;
21999;SDS011;11164;48.818;2.322;2023-04-28T04:44:51;2.22;;;1.17;;
21999;SDS011;11164;48.818;2.322;2023-04-28T04:47:16;2.50;;;1.35;;
21999;SDS011;11164;48.818;2.322;2023-04-28T04:49:41;4.10;;;1.35;;
21999;SDS011;11164;48.818;2.322;2023-04-28T04:52:07;2.92;;;1.23;;
21999;SDS011;11164;48.818;2.322;2023-04-28T04:54:32;2.33;;;1.10;;
21999;SDS011;11164;48.818;2.322;2023-04-28T04:56:57;2.63;;;1.23;;
21999;SDS011;11164;48.818;2.322;2023-04-28T04:59:23;2.55;;;1.17;;
21999;SDS011;11164;48.818;2.322;2023-04-28T05:01:48;4.53;;;1.20;;
21999;SDS011;11164;48.818;2.322;2023-04-28T05:04:14;3.60;;;1.40;;
21999;SDS011;11164;48.818;2.322;2023-04-28T05:06:40;2.80;;;1.40;;
21999;SDS011;11164;48.818;2.322;2023-04-28T05:09:05;2.58;;;1.20;;
21999;SDS011;11164;48.818;2.322;2023-04-28T05:11:30;3.08;;;1.55;;
21999;SDS011;11164;48.818;2.322;2023-04-28T05:13:56;3.17;;;1.23;;
21999;SDS011;11164;48.818;2.322;2023-04-28T05:16:21;2.90;;;1.42;;
21999;SDS011;11164;48.818;2.322;2023-04-28T05:18:46;3.15;;;1.30;;
21999;SDS011;11164;48.818;2.322;2023-04-28T05:21:12;2.38;;;1.13;;
21999;SDS011;11164;48.818;2.322;2023-04-28T05:23:37;2.00;;;1.10;;
21999;SDS011;11164;48.818;2.322;2023-04-28T05:26:03;3.85;;;1.30;;
21999;SDS011;11164;48.818;2.322;2023-04-28T05:28:29;3.20;;;1.20;;
21999;SDS011;11164;48.818;2.322;2023-04-28T05:30:55;6.28;;;1.40;;
21999;SDS011;11164;48.818;2.322;2023-04-28T05:33:20;4.85;;;1.33;;
21999;SDS011;11164;48.818;2.322;2023-04-28T05:35:46;3.33;;;1.27;;
21999;SDS011;11164;48.818;2.322;2023-04-28T05:38:11;3.03;;;1.30;;
21999;SDS011;11164;48.818;2.322;2023-04-28T05:40:37;2.63;;;1.30;;
21999;SDS011;11164;48.818;2.322;2023-04-28T05:43:02;2.60;;;1.23;;
21999;SDS011;11164;48.818;2.322;2023-04-28T05:45:27;2.38;;;1.30;;
21999;SDS011;11164;48.818;2.322;2023-04-28T05:47:53;3.20;;;1.50;;
21999;SDS011;11164;48.818;2.322;2023-04-28T05:50:19;3.25;;;1.40;;
21999;SDS011;11164;48.818;2.322;2023-04-28T05:52:45;4.20;;;1.38;;
21999;SDS011;11164;48.818;2.322;2023-04-28T05:55:11;3.67;;;1.33;;
21999;SDS011;11164;48.818;2.322;2023-04-28T05:57:36;6.10;;;1.80;;
21999;SDS011;11164;48.818;2.322;2023-04-28T06:00:02;3.03;;;1.30;;
21999;SDS011;11164;48.818;2.322;2023-04-28T06:02:27;2.75;;;1.35;;
21999;SDS011;11164;48.818;2.322;2023-04-28T06:04:53;3.17;;;1.30;;
21999;SDS011;11164;48.818;2.322;2023-04-28T06:07:18;3.75;;;1.52;;
21999;SDS011;11164;48.818;2.322;2023-04-28T06:09:43;2.40;;;1.13;;
21999;SDS011;11164;48.818;2.322;2023-04-28T06:12:09;2.70;;;1.40;;
21999;SDS011;11164;48.818;2.322;2023-04-28T06:14:34;2.80;;;1.30;;
21999;SDS011;11164;48.818;2.322;2023-04-28T06:17:01;4.47;;;1.33;;
21999;SDS011;11164;48.818;2.322;2023-04-28T06:19:26;3.78;;;1.55;;
21999;SDS011;11164;48.818;2.322;2023-04-28T06:21:52;3.55;;;1.40;;
21999;SDS011;11164;48.818;2.322;2023-04-28T06:24:17;3.08;;;1.55;;
21999;SDS011;11164;48.818;2.322;2023-04-28T06:26:42;3.92;;;1.40;;
21999;SDS011;11164;48.818;2.322;2023-04-28T06:29:08;3.20;;;1.50;;
21999;SDS011;11164;48.818;2.322;2023-04-28T06:31:34;3.38;;;1.60;;
21999;SDS011;11164;48.818;2.322;2023-04-28T06:34:00;7.70;;;1.67;;
21999;SDS011;11164;48.818;2.322;2023-04-28T06:36:25;3.20;;;1.77;;
21999;SDS011;11164;48.818;2.322;2023-04-28T06:38:50;3.30;;;1.70;;
21999;SDS011;11164;48.818;2.322;2023-04-28T06:41:16;3.88;;;1.58;;
21999;SDS011;11164;48.818;2.322;2023-04-28T06:43:41;3.28;;;1.60;;
21999;SDS011;11164;48.818;2.322;2023-04-28T06:46:07;3.85;;;1.40;;
21999;SDS011;11164;48.818;2.322;2023-04-28T06:48:32;2.85;;;1.50;;
21999;SDS011;11164;48.818;2.322;2023-04-28T06:50:58;3.13;;;1.48;;
21999;SDS011;11164;48.818;2.322;2023-04-28T06:53:23;3.50;;;1.60;;
21999;SDS011;11164;48.818;2.322;2023-04-28T06:55:48;4.45;;;1.95;;
21999;SDS011;11164;48.818;2.322;2023-04-28T06:58:14;4.78;;;1.83;;
21999;SDS011;11164;48.818;2.322;2023-04-28T07:00:39;3.50;;;2.05;;
21999;SDS011;11164;48.818;2.322;2023-04-28T07:03:05;3.88;;;1.88;;
21999;SDS011;11164;48.818;2.322;2023-04-28T07:05:31;4.55;;;1.80;;
21999;SDS011;11164;48.818;2.322;2023-04-28T07:07:57;4.93;;;1.70;;
21999;SDS011;11164;48.818;2.322;2023-04-28T07:10:22;3.63;;;2.30;;
21999;SDS011;11164;48.818;2.322;2023-04-28T07:12:48;3.88;;;1.60;;
21999;SDS011;11164;48.818;2.322;2023-04-28T07:15:16;4.32;;;1.70;;
21999;SDS011;11164;48.818;2.322;2023-04-28T07:17:41;3.42;;;1.90;;
21999;SDS011;11164;48.818;2.322;2023-04-28T07:20:07;4.03;;;1.92;;
21999;SDS011;11164;48.818;2.322;2023-04-28T07:22:33;4.15;;;1.70;;
21999;SDS011;11164;48.818;2.322;2023-04-28T07:24:58;4.32;;;2.00;;
21999;SDS011;11164;48.818;2.322;2023-04-28T07:27:25;4.78;;;2.17;;
21999;SDS011;11164;48.818;2.322;2023-04-28T07:29:50;3.50;;;1.63;;
21999;SDS011;11164;48.818;2.322;2023-04-28T07:32:15;3.75;;;1.67;;
21999;SDS011;11164;48.818;2.322;2023-04-28T07:34:41;3.50;;;1.77;;
21999;SDS011;11164;48.818;2.322;2023-04-28T07:37:06;3.45;;;1.50;;
21999;SDS011;11164;48.818;2.322;2023-04-28T07:39:32;3.70;;;1.42;;
21999;SDS011;11164;48.818;2.322;2023-04-28T07:41:59;3.50;;;1.90;;
21999;SDS011;11164;48.818;2.322;2023-04-28T07:44:26;3.83;;;1.58;;
21999;SDS011;11164;48.818;2.322;2023-04-28T07:46:52;4.30;;;1.40;;
21999;SDS011;11164;48.818;2.322;2023-04-28T07:49:17;5.47;;;1.70;;
21999;SDS011;11164;48.818;2.322;2023-04-28T07:51:43;2.85;;;1.30;;
21999;SDS011;11164;48.818;2.322;2023-04-28T07:54:08;3.45;;;1.65;;
21999;SDS011;11164;48.818;2.322;2023-04-28T07:56:34;4.43;;;2.38;;
21999;SDS011;11164;48.818;2.322;2023-04-28T07:59:00;8.25;;;1.60;;
21999;SDS011;11164;48.818;2.322;2023-04-28T08:01:25;3.45;;;1.30;;
21999;SDS011;11164;48.818;2.322;2023-04-28T08:03:51;4.88;;;1.70;;
21999;SDS011;11164;48.818;2.322;2023-04-28T08:06:16;4.68;;;1.70;;
21999;SDS011;11164;48.818;2.322;2023-04-28T08:08:43;4.07;;;1.50;;
21999;SDS011;11164;48.818;2.322;2023-04-28T08:11:08;2.75;;;1.67;;
21999;SDS011;11164;48.818;2.322;2023-04-28T08:13:33;2.97;;;1.48;;
21999;SDS011;11164;48.818;2.322;2023-04-28T08:15:59;2.80;;;1.40;;
21999;SDS011;11164;48.818;2.322;2023-04-28T08:18:24;2.40;;;1.10;;
21999;SDS011;11164;48.818;2.322;2023-04-28T08:20:51;3.88;;;1.48;;
21999;SDS011;11164;48.818;2.322;2023-04-28T08:23:16;3.45;;;1.40;;
21999;SDS011;11164;48.818;2.322;2023-04-28T08:25:41;3.05;;;1.25;;
21999;SDS011;11164;48.818;2.322;2023-04-28T08:28:07;2.90;;;1.25;;
21999;SDS011;11164;48.818;2.322;2023-04-28T08:30:33;3.05;;;1.08;;
21999;SDS011;11164;48.818;2.322;2023-04-28T08:32:58;3.65;;;1.35;;
21999;SDS011;11164;48.818;2.322;2023-04-28T08:35:24;5.40;;;1.40;;
21999;SDS011;11164;48.818;2.322;2023-04-28T08:37:51;5.28;;;1.30;;
21999;SDS011;11164;48.818;2.322;2023-04-28T08:40:17;3.97;;;1.50;;
21999;SDS011;11164;48.818;2.322;2023-04-28T08:42:42;3.08;;;1.17;;
21999;SDS011;11164;48.818;2.322;2023-04-28T08:45:11;3.20;;;1.27;;
21999;SDS011;11164;48.818;2.322;2023-04-28T08:47:38;2.90;;;1.10;;
21999;SDS011;11164;48.818;2.322;2023-04-28T08:50:09;2.63;;;1.15;;
21999;SDS011;11164;48.818;2.322;2023-04-28T08:52:36;2.83;;;1.27;;
21999;SDS011;11164;48.818;2.322;2023-04-28T08:55:09;4.45;;;1.33;;
21999;SDS011;11164;48.818;2.322;2023-04-28T09:00:05;3.40;;;1.35;;
21999;SDS011;11164;48.818;2.322;2023-04-28T09:02:31;4.00;;;1.88;;
21999;SDS011;11164;48.818;2.322;2023-04-28T09:04:56;5.07;;;1.20;;
21999;SDS011;11164;48.818;2.322;2023-04-28T09:07:22;2.67;;;1.30;;
21999;SDS011;11164;48.818;2.322;2023-04-28T09:09:47;2.80;;;1.02;;
21999;SDS011;11164;48.818;2.322;2023-04-28T09:12:13;3.10;;;1.10;;
21999;SDS011;11164;48.818;2.322;2023-04-28T09:14:38;3.05;;;1.20;;
21999;SDS011;11164;48.818;2.322;2023-04-28T09:17:10;5.00;;;1.40;;
21999;SDS011;11164;48.818;2.322;2023-04-28T09:19:37;5.57;;;1.15;;
21999;SDS011;11164;48.818;2.322;2023-04-28T09:22:04;2.05;;;1.05;;
21999;SDS011;11164;48.818;2.322;2023-04-28T09:24:34;2.30;;;1.08;;
21999;SDS011;11164;48.818;2.322;2023-04-28T09:27:01;3.33;;;1.00;;
21999;SDS011;11164;48.818;2.322;2023-04-28T09:29:28;2.70;;;0.90;;
21999;SDS011;11164;48.818;2.322;2023-04-28T09:34:45;3.58;;;1.25;;
21999;SDS011;11164;48.818;2.322;2023-04-28T09:37:27;4.93;;;1.60;;
21999;SDS011;11164;48.818;2.322;2023-04-28T09:39:56;5.50;;;1.40;;
21999;SDS011;11164;48.818;2.322;2023-04-28T09:42:37;2.63;;;1.10;;
21999;SDS011;11164;48.818;2.322;2023-04-28T09:45:08;2.90;;;1.30;;
21999;SDS011;11164;48.818;2.322;2023-04-28T09:47:36;2.45;;;1.20;;
21999;SDS011;11164;48.818;2.322;2023-04-28T09:50:03;3.63;;;1.30;;
21999;SDS011;11164;48.818;2.322;2023-04-28T09:52:32;2.90;;;1.20;;
21999;SDS011;11164;48.818;2.322;2023-04-28T09:54:57;2.90;;;1.42;;
21999;SDS011;11164;48.818;2.322;2023-04-28T09:57:26;2.90;;;1.20;;
21999;SDS011;11164;48.818;2.322;2023-04-28T09:59:56;4.13;;;1.20;;
21999;SDS011;11164;48.818;2.322;2023-04-28T10:02:22;5.63;;;1.42;;
21999;SDS011;11164;48.818;2.322;2023-04-28T10:04:49;3.50;;;1.17;;
21999;SDS011;11164;48.818;2.322;2023-04-28T10:07:16;3.90;;;1.35;;
21999;SDS011;11164;48.818;2.322;2023-04-28T10:09:43;4.03;;;1.35;;
21999;SDS011;11164;48.818;2.322;2023-04-28T10:12:14;2.88;;;1.10;;
21999;SDS011;11164;48.818;2.322;2023-04-28T10:14:43;2.70;;;1.15;;
21999;SDS011;11164;48.818;2.322;2023-04-28T10:17:10;2.60;;;1.10;;
21999;SDS011;11164;48.818;2.322;2023-04-28T10:19:38;3.05;;;1.15;;
21999;SDS011;11164;48.818;2.322;2023-04-28T10:27:31;4.00;;;1.42;;
21999;SDS011;11164;48.818;2.322;2023-04-28T10:30:15;4.30;;;1.85;;
21999;SDS011;11164;48.818;2.322;2023-04-28T10:32:42;3.60;;;1.50;;
21999;SDS011;11164;48.818;2.322;2023-04-28T10:35:44;3.75;;;1.10;;
21999;SDS011;11164;48.818;2.322;2023-04-28T10:38:14;4.72;;;1.63;;
21999;SDS011;11164;48.818;2.322;2023-04-28T10:40:41;2.75;;;1.00;;
21999;SDS011;11164;48.818;2.322;2023-04-28T10:43:51;3.85;;;1.05;;
21999;SDS011;11164;48.818;2.322;2023-04-28T10:58:45;3.92;;;1.45;;
21999;SDS011;11164;48.818;2.322;2023-04-28T11:11:28;3.28;;;1.25;;
21999;SDS011;11164;48.818;2.322;2023-04-28T11:14:29;3.53;;;1.45;;
21999;SDS011;11164;48.818;2.322;2023-04-28T11:16:52;2.90;;;1.40;;
21999;SDS011;11164;48.818;2.322;2023-04-28T11:19:19;4.65;;;1.35;;
21999;SDS011;11164;48.818;2.322;2023-04-28T11:21:49;4.20;;;1.30;;
21999;SDS011;11164;48.818;2.322;2023-04-28T11:24:16;3.67;;;1.30;;
21999;SDS011;11164;48.818;2.322;2023-04-28T11:26:43;3.83;;;1.30;;
21999;SDS011;11164;48.818;2.322;2023-04-28T11:29:09;5.15;;;1.20;;
21999;SDS011;11164;48.818;2.322;2023-04-28T11:31:36;3.95;;;1.20;;
21999;SDS011;11164;48.818;2.322;2023-04-28T11:34:05;2.22;;;1.00;;
21999;SDS011;11164;48.818;2.322;2023-04-28T11:36:39;4.00;;;1.30;;
21999;SDS011;11164;48.818;2.322;2023-04-28T11:39:05;3.35;;;1.20;;
21999;SDS011;11164;48.818;2.322;2023-04-28T11:41:33;3.67;;;1.13;;
21999;SDS011;11164;48.818;2.322;2023-04-28T11:44:00;2.50;;;1.10;;
21999;SDS011;11164;48.818;2.322;2023-04-28T11:46:33;3.05;;;1.20;;
21999;SDS011;11164;48.818;2.322;2023-04-28T11:49:02;2.53;;;1.17;;
21999;SDS011;11164;48.818;2.322;2023-04-28T11:51:37;5.15;;;1.00;;
21999;SDS011;11164;48.818;2.322;2023-04-28T11:54:04;3.05;;;1.20;;
21999;SDS011;11164;48.818;2.322;2023-04-28T11:56:39;3.35;;;1.10;;
21999;SDS011;11164;48.818;2.322;2023-04-28T11:59:09;2.63;;;1.05;;
21999;SDS011;11164;48.818;2.322;2023-04-28T12:01:49;3.75;;;1.15;;
21999;SDS011;11164;48.818;2.322;2023-04-28T12:04:31;6.55;;;1.35;;
21999;SDS011;11164;48.818;2.322;2023-04-28T12:07:04;2.85;;;1.20;;
21999;SDS011;11164;48.818;2.322;2023-04-28T12:12:10;3.38;;;1.10;;
21999;SDS011;11164;48.818;2.322;2023-04-28T12:19:51;2.67;;;1.00;;
21999;SDS011;11164;48.818;2.322;2023-04-28T12:22:17;4.13;;;2.00;;
21999;SDS011;11164;48.818;2.322;2023-04-28T12:24:43;2.92;;;1.13;;
21999;SDS011;11164;48.818;2.322;2023-04-28T12:27:15;3.50;;;1.40;;
21999;SDS011;11164;48.818;2.322;2023-04-28T12:29:42;4.13;;;1.47;;
21999;SDS011;11164;48.818;2.322;2023-04-28T12:32:10;4.50;;;1.08;;
21999;SDS011;11164;48.818;2.322;2023-04-28T12:34:36;2.78;;;1.10;;
21999;SDS011;11164;48.818;2.322;2023-04-28T12:37:03;2.95;;;1.30;;
21999;SDS011;11164;48.818;2.322;2023-04-28T12:39:29;1.92;;;0.95;;
21999;SDS011;11164;48.818;2.322;2023-04-28T12:41:59;3.58;;;0.90;;
21999;SDS011;11164;48.818;2.322;2023-04-28T12:44:27;2.33;;;0.90;;
21999;SDS011;11164;48.818;2.322;2023-04-28T12:46:59;3.28;;;1.02;;
21999;SDS011;11164;48.818;2.322;2023-04-28T12:49:24;4.22;;;2.15;;
21999;SDS011;11164;48.818;2.322;2023-04-28T12:51:50;3.53;;;1.00;;
21999;SDS011;11164;48.818;2.322;2023-04-28T12:54:15;5.10;;;0.90;;
21999;SDS011;11164;48.818;2.322;2023-04-28T12:56:41;3.55;;;0.82;;
21999;SDS011;11164;48.818;2.322;2023-04-28T12:59:07;3.10;;;1.13;;
21999;SDS011;11164;48.818;2.322;2023-04-28T13:01:32;4.10;;;1.15;;
21999;SDS011;11164;48.818;2.322;2023-04-28T13:03:57;2.42;;;0.82;;
21999;SDS011;11164;48.818;2.322;2023-04-28T13:06:23;3.42;;;1.00;;
21999;SDS011;11164;48.818;2.322;2023-04-28T13:08:48;2.28;;;0.90;;
21999;SDS011;11164;48.818;2.322;2023-04-28T13:11:13;2.47;;;0.93;;
21999;SDS011;11164;48.818;2.322;2023-04-28T13:13:39;1.73;;;0.80;;
21999;SDS011;11164;48.818;2.322;2023-04-28T13:16:05;2.15;;;0.90;;
21999;SDS011;11164;48.818;2.322;2023-04-28T13:18:30;4.00;;;1.10;;
21999;SDS011;11164;48.818;2.322;2023-04-28T13:20:56;2.90;;;0.70;;
21999;SDS011;11164;48.818;2.322;2023-04-28T13:23:21;2.72;;;1.00;;
21999;SDS011;11164;48.818;2.322;2023-04-28T13:25:47;1.77;;;0.70;;
21999;SDS011;11164;48.818;2.322;2023-04-28T13:28:12;1.52;;;0.60;;
21999;SDS011;11164;48.818;2.322;2023-04-28T13:30:38;3.00;;;0.70;;
21999;SDS011;11164;48.818;2.322;2023-04-28T13:33:03;1.92;;;0.80;;
21999;SDS011;11164;48.818;2.322;2023-04-28T13:35:29;3.22;;;0.90;;
21999;SDS011;11164;48.818;2.322;2023-04-28T13:37:54;1.92;;;0.77;;
21999;SDS011;11164;48.818;2.322;2023-04-28T13:40:25;2.03;;;0.60;;
21999;SDS011;11164;48.818;2.322;2023-04-28T13:42:51;2.28;;;0.60;;
21999;SDS011;11164;48.818;2.322;2023-04-28T13:45:16;2.97;;;0.80;;
21999;SDS011;11164;48.818;2.322;2023-04-28T13:47:42;1.17;;;0.50;;
21999;SDS011;11164;48.818;2.322;2023-04-28T13:50:07;2.45;;;0.60;;
21999;SDS011;11164;48.818;2.322;2023-04-28T13:52:33;2.95;;;1.00;;
21999;SDS011;11164;48.818;2.322;2023-04-28T13:54:58;2.58;;;0.90;;
21999;SDS011;11164;48.818;2.322;2023-04-28T13:57:23;1.17;;;0.50;;
21999;SDS011;11164;48.818;2.322;2023-04-28T13:59:49;2.05;;;0.60;;
21999;SDS011;11164;48.818;2.322;2023-04-28T14:02:14;2.38;;;0.70;;
21999;SDS011;11164;48.818;2.322;2023-04-28T14:04:42;2.05;;;0.80;;
21999;SDS011;11164;48.818;2.322;2023-04-28T14:07:12;4.13;;;0.70;;
21999;SDS011;11164;48.818;2.322;2023-04-28T14:09:38;1.52;;;0.47;;
21999;SDS011;11164;48.818;2.322;2023-04-28T14:12:04;2.42;;;0.70;;
21999;SDS011;11164;48.818;2.322;2023-04-28T14:14:30;2.13;;;0.60;;
21999;SDS011;11164;48.818;2.322;2023-04-28T14:16:56;1.95;;;0.50;;
21999;SDS011;11164;48.818;2.322;2023-04-28T14:19:21;2.22;;;0.70;;
21999;SDS011;11164;48.818;2.322;2023-04-28T14:21:46;1.90;;;0.60;;
21999;SDS011;11164;48.818;2.322;2023-04-28T14:24:12;2.58;;;0.60;;
21999;SDS011;11164;48.818;2.322;2023-04-28T14:26:38;3.40;;;0.75;;
21999;SDS011;11164;48.818;2.322;2023-04-28T14:29:04;2.17;;;0.68;;
21999;SDS011;11164;48.818;2.322;2023-04-28T14:31:29;2.13;;;0.68;;
21999;SDS011;11164;48.818;2.322;2023-04-28T14:33:55;2.15;;;0.50;;
21999;SDS011;11164;48.818;2.322;2023-04-28T14:36:20;2.35;;;0.50;;
21999;SDS011;11164;48.818;2.322;2023-04-28T14:38:46;1.90;;;0.60;;
21999;SDS011;11164;48.818;2.322;2023-04-28T14:41:11;3.03;;;0.60;;
21999;SDS011;11164;48.818;2.322;2023-04-28T14:43:36;1.90;;;0.60;;
21999;SDS011;11164;48.818;2.322;2023-04-28T14:46:02;3.03;;;0.60;;
21999;SDS011;11164;48.818;2.322;2023-04-28T14:48:28;2.28;;;0.60;;
21999;SDS011;11164;48.818;2.322;2023-04-28T14:50:56;2.13;;;0.75;;
21999;SDS011;11164;48.818;2.322;2023-04-28T14:53:21;2.80;;;0.80;;
21999;SDS011;11164;48.818;2.322;2023-04-28T14:55:47;1.98;;;0.60;;
21999;SDS011;11164;48.818;2.322;2023-04-28T14:58:13;3.67;;;0.77;;
21999;SDS011;11164;48.818;2.322;2023-04-28T15:00:39;1.08;;;0.50;;
21999;SDS011;11164;48.818;2.322;2023-04-28T15:03:04;1.80;;;0.68;;
21999;SDS011;11164;48.818;2.322;2023-04-28T15:05:30;3.63;;;0.75;;
21999;SDS011;11164;48.818;2.322;2023-04-28T15:07:55;1.90;;;0.50;;
21999;SDS011;11164;48.818;2.322;2023-04-28T15:10:21;1.85;;;0.60;;
21999;SDS011;11164;48.818;2.322;2023-04-28T15:12:46;1.75;;;0.40;;
21999;SDS011;11164;48.818;2.322;2023-04-28T15:15:12;1.08;;;0.40;;
21999;SDS011;11164;48.818;2.322;2023-04-28T15:17:38;1.90;;;0.50;;
21999;SDS011;11164;48.818;2.322;2023-04-28T15:20:04;3.15;;;0.93;;
21999;SDS011;11164;48.818;2.322;2023-04-28T15:22:30;2.00;;;0.47;;
21999;SDS011;11164;48.818;2.322;2023-04-28T15:24:55;1.50;;;0.40;;